Time;durP1;ratioP1;P1;durP2;ratioP2;P2;SDS_P1;SDS_P2;PMS_P1;PMS_P2;Temp;Humidity;BMP_temperature;BMP_pressure;BME280_temperature;BME280_humidity;BME280_pressure;Samples;Min_cycle;Max_cycle;Signal;HPM_P1;HPM_P2
2024/01/12 00:00:32;;;;;;;;;;;-4.80;99.90;;;;;;4936041;29;19918;-83
2024/01/12 00:02:58;;;;;;;;;;;-4.80;99.90;;;;;;4904761;29;20680;-84
2024/01/12 00:05:24;;;;;;;;;;;-4.80;99.90;;;;;;4936325;29;19919;-84
2024/01/12 00:07:50;;;;;;;;;;;-4.80;99.90;;;;;;4936073;29;20406;-84
2024/01/12 00:10:15;;;;;;;;;;;-4.80;99.90;;;;;;4912043;29;19915;-83
2024/01/12 00:12:41;;;;;;;;;;;-4.90;99.90;;;;;;4936218;29;19914;-83
2024/01/12 00:15:07;;;;;;;;;;;-4.90;99.90;;;;;;4923574;29;19923;-83
2024/01/12 00:17:32;;;;;;;;;;;-4.90;99.90;;;;;;4930363;29;19921;-83
2024/01/12 00:19:58;;;;;;;;;;;-4.90;99.90;;;;;;4935450;29;19915;-83
2024/01/12 00:22:24;;;;;;;;;;;-4.90;99.90;;;;;;4935836;29;19986;-83
2024/01/12 00:24:49;;;;;;;;;;;-4.80;99.90;;;;;;4932668;29;19915;-83
2024/01/12 00:27:15;;;;;;;;;;;-4.80;99.90;;;;;;4906444;29;19997;-84
2024/01/12 00:29:41;;;;;;;;;;;-5.00;99.90;;;;;;4937596;29;19914;-83
2024/01/12 00:32:06;;;;;;;;;;;-5.00;99.90;;;;;;4934000;29;19918;-83
2024/01/12 00:34:32;;;;;;;;;;;-5.10;99.90;;;;;;4941448;29;19923;-83
2024/01/12 00:36:58;;;;;;;;;;;-5.10;99.90;;;;;;4937038;29;20339;-83
2024/01/12 00:39:23;;;;;;;;;;;-5.00;99.90;;;;;;4927743;29;20286;-83
2024/01/12 00:41:50;;;;;;;;;;;-5.00;99.90;;;;;;4904039;29;20731;-83
2024/01/12 00:44:18;;;;;;;;;;;-5.00;99.90;;;;;;4907247;29;19959;-83
2024/01/12 00:46:44;;;;;;;;;;;-5.10;99.90;;;;;;4913073;29;19915;-83
2024/01/12 00:49:10;;;;;;;;;;;-5.20;99.90;;;;;;4933058;29;20508;-83
2024/01/12 00:51:35;;;;;;;;;;;-5.30;99.90;;;;;;4942892;29;20017;-83
2024/01/12 00:54:02;;;;;;;;;;;-5.50;99.90;;;;;;4903210;29;20005;-84
2024/01/12 00:56:27;;;;;;;;;;;-5.60;99.90;;;;;;4935234;29;19929;-84
2024/01/12 00:58:53;;;;;;;;;;;-5.70;99.90;;;;;;4903656;29;19915;-83
2024/01/12 01:01:19;;;;;;;;;;;-5.70;99.90;;;;;;4906841;29;19969;-84
2024/01/12 01:03:44;;;;;;;;;;;-5.80;99.90;;;;;;4903117;29;19926;-83
2024/01/12 01:06:10;;;;;;;;;;;-5.80;99.90;;;;;;4934660;29;19925;-83
2024/01/12 01:08:35;;;;;;;;;;;-5.90;99.90;;;;;;4908633;29;19966;-83
2024/01/12 01:11:01;;;;;;;;;;;-5.90;99.90;;;;;;4934787;29;20009;-83
2024/01/12 01:13:27;;;;;;;;;;;-6.00;99.90;;;;;;4934165;29;19923;-83
2024/01/12 01:15:53;;;;;;;;;;;-6.00;99.90;;;;;;4937109;29;20689;-83
2024/01/12 01:18:18;;;;;;;;;;;-6.10;99.90;;;;;;4903170;29;19919;-83
2024/01/12 01:20:44;;;;;;;;;;;-6.20;99.90;;;;;;4934729;29;19919;-83
2024/01/12 01:23:09;;;;;;;;;;;-6.20;99.90;;;;;;4910370;29;19915;-83
2024/01/12 01:25:36;;;;;;;;;;;-6.20;99.90;;;;;;4931288;28;19919;-83
2024/01/12 01:28:02;;;;;;;;;;;-6.20;99.90;;;;;;4933958;29;19915;-83
2024/01/12 01:30:27;;;;;;;;;;;-6.30;99.90;;;;;;4902687;29;19933;-84
2024/01/12 01:32:53;;;;;;;;;;;-6.40;99.90;;;;;;4942420;29;20299;-83
2024/01/12 01:35:19;;;;;;;;;;;-6.40;99.90;;;;;;4943662;29;19964;-83
2024/01/12 01:37:44;;;;;;;;;;;-6.40;99.90;;;;;;4918217;29;20017;-83
2024/01/12 01:40:10;;;;;;;;;;;-6.30;99.90;;;;;;4934455;29;19919;-83
2024/01/12 01:42:36;;;;;;;;;;;-6.20;99.90;;;;;;4927799;29;19914;-83
2024/01/12 01:45:02;;;;;;;;;;;-6.30;99.90;;;;;;4934808;29;20371;-83
2024/01/12 01:47:27;;;;;;;;;;;-6.30;99.90;;;;;;4945263;29;19914;-83
2024/01/12 01:49:53;;;;;;;;;;;-6.30;99.90;;;;;;4940568;29;19914;-83
2024/01/12 01:52:25;;;;;;;;;;;-6.30;99.90;;;;;;4924997;29;19918;-83
2024/01/12 01:54:52;;;;;;;;;;;-6.30;99.90;;;;;;4934167;29;19934;-83
2024/01/12 01:57:18;;;;;;;;;;;-6.30;99.90;;;;;;4927835;29;19915;-83
2024/01/12 01:59:44;;;;;;;;;;;-6.40;99.90;;;;;;4939244;29;19915;-83
2024/01/12 02:02:10;;;;;;;;;;;-6.50;99.90;;;;;;4925670;29;19921;-83
2024/01/12 02:04:35;;;;;;;;;;;-6.50;99.90;;;;;;4938614;29;20010;-83
2024/01/12 02:07:07;;;;;;;;;;;-6.60;99.90;;;;;;4910437;29;19970;-83
2024/01/12 02:09:34;;;;;;;;;;;-6.70;99.90;;;;;;4913943;29;20351;-83
2024/01/12 02:11:59;;;;;;;;;;;-6.80;99.90;;;;;;4927278;29;20072;-83
2024/01/12 02:14:25;;;;;;;;;;;-6.80;99.90;;;;;;4934467;29;19998;-83
2024/01/12 02:16:54;;;;;;;;;;;-6.80;99.90;;;;;;4902416;29;19926;-83
2024/01/12 02:19:19;;;;;;;;;;;-6.80;99.90;;;;;;4935433;29;19914;-83
2024/01/12 02:21:45;;;;;;;;;;;-6.90;99.90;;;;;;4939520;29;19919;-83
2024/01/12 02:24:10;;;;;;;;;;;-7.00;99.90;;;;;;4933777;29;19922;-83
2024/01/12 02:26:36;;;;;;;;;;;-7.10;99.90;;;;;;4933231;29;19918;-83
2024/01/12 02:29:03;;;;;;;;;;;-7.10;99.90;;;;;;4918756;29;20010;-83
2024/01/12 02:31:29;;;;;;;;;;;-7.20;99.90;;;;;;4932835;29;20302;-84
2024/01/12 02:33:55;;;;;;;;;;;-7.20;99.90;;;;;;4938568;29;19918;-83
2024/01/12 02:36:20;;;;;;;;;;;-7.30;99.90;;;;;;4903419;29;20010;-83
2024/01/12 02:38:49;;;;;;;;;;;-7.30;99.90;;;;;;4939762;29;20283;-83
2024/01/12 02:41:15;;;;;;;;;;;-7.40;99.90;;;;;;4932597;29;19970;-83
2024/01/12 02:43:41;;;;;;;;;;;-7.40;99.90;;;;;;4901605;29;19923;-83
2024/01/12 02:46:06;;;;;;;;;;;-7.40;99.90;;;;;;4933010;29;19970;-83
2024/01/12 02:48:32;;;;;;;;;;;-7.30;99.90;;;;;;4916932;29;20021;-83
2024/01/12 02:50:57;;;;;;;;;;;-7.00;99.90;;;;;;4932991;29;19970;-83
2024/01/12 02:53:23;;;;;;;;;;;-6.90;99.90;;;;;;4917029;29;20669;-83
2024/01/12 02:55:48;;;;;;;;;;;-6.80;99.90;;;;;;4932270;29;20014;-83
2024/01/12 02:58:14;;;;;;;;;;;-6.70;99.90;;;;;;4901141;29;20104;-83
2024/01/12 03:00:39;;;;;;;;;;;-6.70;99.90;;;;;;4932924;29;19925;-83
2024/01/12 03:03:05;;;;;;;;;;;-6.60;99.90;;;;;;4924120;29;19919;-83
2024/01/12 03:05:31;;;;;;;;;;;-6.60;99.90;;;;;;4924717;29;19922;-83
2024/01/12 03:07:57;;;;;;;;;;;-6.60;99.90;;;;;;4927424;29;20298;-83
2024/01/12 03:10:22;;;;;;;;;;;-6.70;99.90;;;;;;4934499;29;20442;-83
2024/01/12 03:12:48;;;;;;;;;;;-6.80;99.90;;;;;;4932919;29;19918;-84
2024/01/12 03:15:13;;;;;;;;;;;-6.90;99.90;;;;;;4932648;29;19969;-83
2024/01/12 03:17:40;;;;;;;;;;;-6.90;99.90;;;;;;4932592;29;19915;-83
2024/01/12 03:20:07;;;;;;;;;;;-6.90;99.90;;;;;;4932821;29;19915;-83
2024/01/12 03:22:32;;;;;;;;;;;-6.70;99.90;;;;;;4932695;29;19921;-83
2024/01/12 03:24:58;;;;;;;;;;;-6.60;99.90;;;;;;4901492;29;20298;-83
2024/01/12 03:27:23;;;;;;;;;;;-6.50;99.90;;;;;;4937421;29;19922;-83
2024/01/12 03:29:49;;;;;;;;;;;-6.50;99.90;;;;;;4922785;29;19950;-83
2024/01/12 03:32:15;;;;;;;;;;;-6.50;99.90;;;;;;4927057;28;20302;-83
2024/01/12 03:34:40;;;;;;;;;;;-6.50;99.90;;;;;;4933417;29;19970;-83
2024/01/12 03:37:06;;;;;;;;;;;-6.50;99.90;;;;;;4932591;29;20327;-83
2024/01/12 03:39:32;;;;;;;;;;;-6.60;99.90;;;;;;4905744;29;19929;-83
2024/01/12 03:41:57;;;;;;;;;;;-6.60;99.90;;;;;;4932893;29;20349;-83
2024/01/12 03:44:23;;;;;;;;;;;-6.60;99.90;;;;;;4917154;29;19918;-83
2024/01/12 03:46:48;;;;;;;;;;;-6.70;99.90;;;;;;4933143;29;19921;-82
2024/01/12 03:49:14;;;;;;;;;;;-6.60;99.90;;;;;;4901037;29;19915;-83
2024/01/12 03:51:43;;;;;;;;;;;-6.60;99.90;;;;;;4918229;29;19919;-84
2024/01/12 03:54:09;;;;;;;;;;;-6.50;99.90;;;;;;4913909;29;19922;-83
2024/01/12 03:56:35;;;;;;;;;;;-6.50;99.90;;;;;;4936589;29;19919;-83
2024/01/12 03:59:00;;;;;;;;;;;-6.40;99.90;;;;;;4904092;29;20286;-83
2024/01/12 04:01:45;;;;;;;;;;;-6.30;99.90;;;;;;4935937;29;19929;-83
2024/01/12 04:04:11;;;;;;;;;;;-6.30;99.90;;;;;;4935755;29;19918;-83
2024/01/12 04:06:36;;;;;;;;;;;-6.30;99.90;;;;;;4936010;29;19965;-83
2024/01/12 04:09:02;;;;;;;;;;;-6.40;99.90;;;;;;4942306;29;19949;-83
2024/01/12 04:11:28;;;;;;;;;;;-6.50;99.90;;;;;;4938112;29;19918;-83
2024/01/12 04:13:53;;;;;;;;;;;-6.50;99.90;;;;;;4935760;29;20363;-83
2024/01/12 04:16:20;;;;;;;;;;;-6.60;99.90;;;;;;4935531;29;20118;-83
2024/01/12 04:18:45;;;;;;;;;;;-6.60;99.90;;;;;;4943437;29;19926;-84
2024/01/12 04:21:12;;;;;;;;;;;-6.60;99.90;;;;;;4935803;29;19919;-83
2024/01/12 04:23:37;;;;;;;;;;;-6.60;99.90;;;;;;4927679;29;19922;-83
2024/01/12 04:26:03;;;;;;;;;;;-6.70;99.90;;;;;;4936325;29;19926;-83
2024/01/12 04:28:29;;;;;;;;;;;-6.60;99.90;;;;;;4904054;29;19922;-83
2024/01/12 04:30:54;;;;;;;;;;;-6.40;99.90;;;;;;4935497;29;19942;-83
2024/01/12 04:33:20;;;;;;;;;;;-6.40;99.90;;;;;;4899937;29;19923;-83
2024/01/12 04:35:45;;;;;;;;;;;-6.40;99.90;;;;;;4935554;29;19919;-83
2024/01/12 04:38:11;;;;;;;;;;;-6.30;99.90;;;;;;4910795;29;19915;-83
2024/01/12 04:40:37;;;;;;;;;;;-6.30;99.90;;;;;;4936259;29;20028;-83
2024/01/12 04:43:03;;;;;;;;;;;-6.30;99.90;;;;;;4940881;29;19978;-83
2024/01/12 04:45:28;;;;;;;;;;;-6.10;99.90;;;;;;4906276;29;19926;-82
2024/01/12 04:47:54;;;;;;;;;;;-5.90;99.90;;;;;;4935806;29;20651;-83
2024/01/12 04:50:20;;;;;;;;;;;-5.70;99.90;;;;;;4936371;29;19922;-83
2024/01/12 04:52:45;;;;;;;;;;;-5.60;99.90;;;;;;4903525;29;19915;-84
2024/01/12 04:55:11;;;;;;;;;;;-5.60;99.90;;;;;;4935993;29;19919;-82
2024/01/12 04:57:36;;;;;;;;;;;-5.60;99.90;;;;;;4926823;29;19930;-83
2024/01/12 05:00:03;;;;;;;;;;;-5.60;99.90;;;;;;4937845;29;20378;-89
2024/01/12 05:02:28;;;;;;;;;;;-5.70;99.90;;;;;;4913144;29;19922;-89
2024/01/12 05:04:54;;;;;;;;;;;-5.70;99.90;;;;;;4938177;29;19915;-89
2024/01/12 05:07:19;;;;;;;;;;;-5.70;99.90;;;;;;4907051;29;19915;-89
2024/01/12 05:09:45;;;;;;;;;;;-5.80;99.90;;;;;;4938360;29;19923;-89
2024/01/12 05:12:11;;;;;;;;;;;-6.00;99.90;;;;;;4907241;29;20005;-89
2024/01/12 05:18:05;;;;;;;;;;;-6.00;99.90;;;;;;4939226;29;19984;-89
2024/01/12 05:20:31;;;;;;;;;;;-6.20;99.90;;;;;;4906484;29;19919;-89
2024/01/12 05:22:56;;;;;;;;;;;-6.20;99.90;;;;;;4937960;29;19919;-89
2024/01/12 05:25:22;;;;;;;;;;;-6.30;99.90;;;;;;4922465;29;19915;-89
2024/01/12 05:27:47;;;;;;;;;;;-6.20;99.90;;;;;;4939531;29;19966;-89
2024/01/12 05:30:13;;;;;;;;;;;-6.20;99.90;;;;;;4938372;29;19921;-89
2024/01/12 05:32:39;;;;;;;;;;;-6.30;99.90;;;;;;4939098;28;20278;-89
2024/01/12 05:35:04;;;;;;;;;;;-6.20;99.90;;;;;;4937844;29;20029;-89
2024/01/12 05:37:30;;;;;;;;;;;-6.30;99.90;;;;;;4937869;29;19966;-89
2024/01/12 05:39:56;;;;;;;;;;;-6.40;99.90;;;;;;4937745;29;20031;-89
2024/01/12 05:42:21;;;;;;;;;;;-6.50;99.90;;;;;;4937648;29;20031;-89
2024/01/12 05:44:47;;;;;;;;;;;-6.70;99.90;;;;;;4910799;29;19965;-89
2024/01/12 05:47:13;;;;;;;;;;;-6.70;99.90;;;;;;4941195;29;19937;-89
2024/01/12 05:49:38;;;;;;;;;;;-6.70;99.90;;;;;;4906090;29;19952;-89
2024/01/12 05:52:29;;;;;;;;;;;-6.70;99.90;;;;;;4905886;29;19923;-89
2024/01/12 05:54:55;;;;;;;;;;;-6.70;99.90;;;;;;4945325;29;19915;-89
2024/01/12 05:57:21;;;;;;;;;;;-6.80;99.90;;;;;;4937573;29;19915;-89
2024/01/12 05:59:46;;;;;;;;;;;-6.90;99.90;;;;;;4923211;29;20005;-89
2024/01/12 06:02:14;;;;;;;;;;;-7.00;99.90;;;;;;4921180;29;19915;-89
2024/01/12 06:04:40;;;;;;;;;;;-7.00;99.90;;;;;;4938261;29;19915;-90
2024/01/12 06:07:06;;;;;;;;;;;-7.10;99.90;;;;;;4905491;29;19937;-89
2024/01/12 06:09:31;;;;;;;;;;;-7.10;99.90;;;;;;4936891;29;19915;-89
2024/01/12 06:11:57;;;;;;;;;;;-7.20;99.90;;;;;;4937360;29;19922;-89
2024/01/12 06:14:22;;;;;;;;;;;-7.20;99.90;;;;;;4938080;29;19950;-89
2024/01/12 06:16:48;;;;;;;;;;;-7.20;99.90;;;;;;4905352;29;19919;-89
2024/01/12 06:19:14;;;;;;;;;;;-7.40;99.90;;;;;;4936897;29;20252;-89
2024/01/12 06:21:40;;;;;;;;;;;-7.50;99.90;;;;;;4937702;29;19921;-92
2024/01/12 06:24:17;;;;;;;;;;;-7.60;99.90;;;;;;4937054;29;19915;-89
2024/01/12 06:27:07;;;;;;;;;;;-7.50;99.90;;;;;;4925631;29;20271;-89
2024/01/12 06:29:34;;;;;;;;;;;-7.60;99.90;;;;;;4945743;29;19915;-89
2024/01/12 06:32:00;;;;;;;;;;;-7.60;99.90;;;;;;4944320;29;19918;-88
2024/01/12 06:34:26;;;;;;;;;;;-7.70;99.90;;;;;;4934858;29;19925;-89
2024/01/12 06:36:51;;;;;;;;;;;-7.60;99.90;;;;;;4911662;29;19927;-88
2024/01/12 06:39:17;;;;;;;;;;;-7.70;99.90;;;;;;4936718;29;19914;-89
2024/01/12 06:41:43;;;;;;;;;;;-7.80;99.90;;;;;;4905182;29;20050;-89
2024/01/12 06:44:09;;;;;;;;;;;-7.80;99.90;;;;;;4940321;29;19918;-89
2024/01/12 06:46:35;;;;;;;;;;;-7.90;99.90;;;;;;4923469;29;20013;-88
2024/01/12 06:49:00;;;;;;;;;;;-7.90;99.90;;;;;;4936467;29;19954;-89
2024/01/12 06:51:26;;;;;;;;;;;-7.80;99.90;;;;;;4932655;29;20274;-88
2024/01/12 06:53:52;;;;;;;;;;;-7.90;99.90;;;;;;4904175;29;19930;-88
2024/01/12 06:56:21;;;;;;;;;;;-8.00;99.90;;;;;;4930413;29;20323;-89
2024/01/12 06:58:49;;;;;;;;;;;-8.00;99.90;;;;;;4912252;29;20406;-89
2024/01/12 07:01:18;;;;;;;;;;;-8.00;99.90;;;;;;4906802;29;20302;-89
2024/01/12 07:03:44;;;;;;;;;;;-8.10;99.90;;;;;;4909244;29;19923;-89
2024/01/12 07:06:10;;;;;;;;;;;-8.20;99.90;;;;;;4928553;29;20032;-90
2024/01/12 07:08:36;;;;;;;;;;;-8.10;99.90;;;;;;4930970;29;19919;-90
2024/01/12 07:11:03;;;;;;;;;;;-8.20;99.90;;;;;;4943586;29;20385;-90
2024/01/12 07:13:57;;;;;;;;;;;-8.20;99.90;;;;;;4939494;29;19942;-89
2024/01/12 07:16:22;;;;;;;;;;;-8.20;99.90;;;;;;4925585;29;20267;-89
2024/01/12 07:18:48;;;;;;;;;;;-8.10;99.90;;;;;;4931298;29;19943;-89
2024/01/12 07:21:14;;;;;;;;;;;-7.90;99.90;;;;;;4892314;29;19915;-89
2024/01/12 07:23:39;;;;;;;;;;;-7.70;99.90;;;;;;4914042;29;19914;-89
2024/01/12 07:26:05;;;;;;;;;;;-7.70;99.90;;;;;;4936594;29;19922;-89
2024/01/12 07:28:31;;;;;;;;;;;-7.50;99.90;;;;;;4919131;29;19915;-89
2024/01/12 07:30:56;;;;;;;;;;;-7.20;99.90;;;;;;4939504;29;19930;-89
2024/01/12 07:33:22;;;;;;;133.40;37.40;;;-7.00;99.90;;;;;;4938008;29;20272;-89
2024/01/12 07:35:48;;;;;;;;;;;-6.80;99.90;;;;;;4905861;29;19915;-89
2024/01/12 07:38:14;;;;;;;;;;;-6.70;99.90;;;;;;4942767;29;19987;-90
2024/01/12 07:40:39;;;;;;;;;;;-6.50;99.90;;;;;;4939702;29;20625;-90
2024/01/12 07:43:05;;;;;;;;;;;-6.30;99.90;;;;;;4938637;29;20009;-89
2024/01/12 07:45:34;;;;;;;;;;;-6.20;99.90;;;;;;4906478;29;19912;-90
2024/01/12 07:47:59;;;;;;;;;;;-6.10;99.90;;;;;;4945453;29;19956;-89
2024/01/12 07:50:25;;;;;;;;;;;-6.00;99.90;;;;;;4941027;29;20375;-89
2024/01/12 07:52:51;;;;;;;;;;;-5.90;99.90;;;;;;4939386;29;19993;-90
2024/01/12 07:55:16;;;;;;;;;;;-5.80;99.90;;;;;;4924674;29;19974;-90
2024/01/12 07:57:42;;;;;;;;;;;-5.70;99.90;;;;;;4917619;29;19957;-90
2024/01/12 08:00:11;;;;;;;;;;;-5.70;99.90;;;;;;4942729;29;20382;-89
2024/01/12 08:02:39;;;;;;;;;;;-5.70;99.90;;;;;;4939167;29;20005;-90
2024/01/12 08:05:12;;;;;;;;;;;-5.70;99.90;;;;;;4938372;29;19957;-89
2024/01/12 08:07:38;;;;;;;;;;;-5.60;99.90;;;;;;4942091;29;19915;-89
2024/01/12 08:10:04;;;;;;;;;;;-5.50;99.90;;;;;;4939339;29;19922;-89
2024/01/12 08:12:30;;;;;;;;;;;-5.40;99.90;;;;;;4924745;29;19911;-89
2024/01/12 08:14:55;;;;;;;;;;;-5.30;99.90;;;;;;4938201;29;19913;-89
2024/01/12 08:17:21;;;;;;;;;;;-5.30;99.90;;;;;;4921081;29;20248;-89
2024/01/12 08:19:47;;;;;;;;;;;-5.20;99.90;;;;;;4945012;29;19915;-90
2024/01/12 08:22:13;;;;;;;;;;;-5.10;99.90;;;;;;4936455;29;19915;-90
2024/01/12 08:24:39;;;;;;;;;;;-4.90;99.90;;;;;;4937232;29;19914;-89
2024/01/12 08:27:05;;;;;;;;;;;-4.90;99.90;;;;;;4915852;29;19966;-90
2024/01/12 08:30:07;;;;;;;;;;;-4.80;99.90;;;;;;4933377;29;20327;-89
2024/01/12 08:32:33;;;;;;;;;;;-4.70;99.90;;;;;;4933254;29;19942;-89
2024/01/12 08:34:58;;;;;;;;;;;-4.60;99.90;;;;;;4919290;29;19919;-90
2024/01/12 08:37:24;;;;;;;;;;;-4.60;99.90;;;;;;4906680;29;19911;-90
2024/01/12 08:39:50;;;;;;;;;;;-4.50;99.90;;;;;;4920149;29;20030;-90
2024/01/12 08:42:16;;;;;;;;;;;-4.30;99.90;;;;;;4939597;29;20057;-90
2024/01/12 08:44:42;;;;;;;;;;;-4.20;99.90;;;;;;4941765;29;19957;-88
2024/01/12 08:47:07;;;;;;;;;;;-4.10;99.90;;;;;;4927584;29;20411;-90
2024/01/12 08:49:33;;;;;;;;;;;-3.90;99.90;;;;;;4934470;29;19919;-89
2024/01/12 08:51:59;;;;;;;;;;;-3.80;99.90;;;;;;4937016;29;19970;-90
2024/01/12 08:54:24;;;;;;;;;;;-3.70;99.90;;;;;;4906570;29;19910;-90
2024/01/12 08:56:50;;;;;;;;;;;-3.60;99.90;;;;;;4920768;29;19915;-89
2024/01/12 08:59:16;;;;;;;;;;;-3.70;99.90;;;;;;4937910;29;19918;-90
2024/01/12 09:01:41;;;;;;;;;;;-3.80;99.90;;;;;;4938668;29;19997;-90
2024/01/12 09:04:07;;;;;;;;;;;-3.70;99.90;;;;;;4928192;29;19989;-88
2024/01/12 09:06:32;;;;;;;;;;;-3.60;99.90;;;;;;4910512;29;19910;-89
2024/01/12 09:08:58;;;;;;;;;;;-3.60;99.90;;;;;;4905719;29;19954;-89
2024/01/12 09:11:24;;;;;;;;;;;-3.70;99.90;;;;;;4927717;29;20320;-88
2024/01/12 09:13:49;;;;;;;;;;;-3.70;99.90;;;;;;4924470;29;20382;-89
2024/01/12 09:16:15;;;;;;;;;;;-3.60;99.90;;;;;;4928352;29;19938;-88
2024/01/12 09:18:42;;;;;;;;;;;-3.80;99.90;;;;;;4939053;29;19911;-88
2024/01/12 09:21:08;;;;;;;;;;;-3.80;99.90;;;;;;4945074;29;20267;-89
2024/01/12 09:23:33;;;;;;;;;;;-3.70;99.90;;;;;;4915989;29;19911;-89
2024/01/12 09:25:59;;;;;;;;;;;-3.60;99.90;;;;;;4938382;29;19911;-89
2024/01/12 09:28:25;;;;;;;;;;;-3.60;99.90;;;;;;4925611;29;19919;-88
2024/01/12 09:30:50;;;;;;;;;;;-3.50;99.90;;;;;;4944350;29;19937;-88
2024/01/12 09:33:16;;;;;;;;;;;-3.60;99.90;;;;;;4948635;29;19923;-89
2024/01/12 09:35:42;;;;;;;;;;;-3.50;99.90;;;;;;4937165;29;19911;-88
2024/01/12 09:38:07;;;;;;;;;;;-3.40;99.90;;;;;;4930811;29;19925;-89
2024/01/12 09:40:33;;;;;;;;;;;-3.30;99.90;;;;;;4939247;29;19918;-89
2024/01/12 09:43:04;;;;;;;;;;;-3.10;99.90;;;;;;4911063;29;19954;-89
2024/01/12 09:45:30;;;;;;;;;;;-3.10;99.90;;;;;;4922783;29;19914;-89
2024/01/12 09:47:55;;;;;;;;;;;-3.00;99.90;;;;;;4904678;29;19945;-89
2024/01/12 09:50:24;;;;;;;;;;;-2.70;99.90;;;;;;4936447;29;19945;-89
2024/01/12 09:52:50;;;;;;;;;;;-2.80;99.90;;;;;;4905158;29;20374;-88
2024/01/12 09:55:16;;;;;;;;;;;-2.80;99.90;;;;;;4947060;29;19914;-89
2024/01/12 09:57:44;;;;;;;;;;;-2.90;99.90;;;;;;4931432;29;19911;-89
2024/01/12 10:00:28;;;;;;;;;;;-3.00;99.90;;;;;;4903575;29;19954;-89
2024/01/12 10:02:55;;;;;;;;;;;-2.90;99.90;;;;;;4934810;29;19917;-89
2024/01/12 10:05:21;;;;;;;;;;;-2.80;99.90;;;;;;4933212;29;20421;-89
2024/01/12 10:07:47;;;;;;;;;;;-2.80;99.90;;;;;;4936469;29;19918;-88
2024/01/12 10:10:13;;;;;;;;;;;-2.60;99.90;;;;;;4936013;29;20335;-89
2024/01/12 10:12:38;;;;;;;;;;;-2.60;99.90;;;;;;4939510;29;20372;-88
2024/01/12 10:15:05;;;;;;;;;;;-2.60;99.90;;;;;;4905737;29;19911;-88
2024/01/12 10:17:31;;;;;;;;;;;-2.40;99.90;;;;;;4937709;29;19909;-88
2024/01/12 10:23:26;;;;;;;;;;;-2.30;99.90;;;;;;4941474;29;20270;-88
2024/01/12 10:25:56;;;;;;;;;;;-2.20;99.90;;;;;;4941025;29;19917;-88
2024/01/12 10:28:22;;;;;;;;;;;-2.10;99.90;;;;;;4932301;29;19918;-89
2024/01/12 10:30:48;;;;;;;;;;;-2.10;99.90;;;;;;4934836;29;20504;-88
2024/01/12 10:33:13;;;;;;;;;;;-2.20;99.90;;;;;;4919862;29;19923;-89
2024/01/12 10:35:39;;;;;;;;;;;-2.10;99.90;;;;;;4919408;29;20005;-89
2024/01/12 10:38:05;;;;;;;;;;;-2.00;99.90;;;;;;4924108;29;19957;-87
2024/01/12 10:40:31;;;;;;;;;;;-2.00;99.90;;;;;;4935301;29;20372;-88
2024/01/12 10:42:58;;;;;;;;;;;-2.10;99.90;;;;;;4935230;29;19918;-88
2024/01/12 10:45:29;;;;;;;;;;;-2.20;99.90;;;;;;4919011;29;19914;-89
2024/01/12 10:48:00;;;;;;;;;;;-2.20;99.90;;;;;;4935919;29;19915;-89
2024/01/12 10:50:26;;;;;;;;;;;-2.30;99.90;;;;;;4927941;29;20282;-88
2024/01/12 10:52:51;;;;;;;;;;;-2.30;99.90;;;;;;4928638;28;19930;-89
2024/01/12 10:55:20;;;;;;;;;;;-2.10;99.90;;;;;;4940126;29;19914;-89
2024/01/12 10:57:46;;;;;;;;;;;-2.00;99.90;;;;;;4915887;29;19918;-89
2024/01/12 11:00:14;;;;;;;;;;;-1.80;99.90;;;;;;4933685;28;20354;-89
2024/01/12 11:02:40;;;;;;;;;;;-1.70;99.90;;;;;;4934095;29;19918;-89
2024/01/12 11:05:09;;;;;;;;;;;-1.60;99.90;;;;;;4934504;29;19958;-89
2024/01/12 11:07:35;;;;;;;;;;;-1.50;99.90;;;;;;4916096;29;19911;-89
2024/01/12 11:10:03;;;;;;;;;;;-1.40;99.90;;;;;;4919068;29;19911;-88
2024/01/12 11:12:32;;;;;;;;;;;-1.30;99.90;;;;;;4909735;29;19917;-89
2024/01/12 11:15:04;;;;;;;;;;;-1.30;99.90;;;;;;4931565;29;19915;-89
2024/01/12 11:17:30;;;;;;;;;;;-1.30;99.90;;;;;;4937044;29;19911;-88
2024/01/12 11:20:06;;;;;;;;;;;-1.40;99.90;;;;;;4930068;29;19911;-88
2024/01/12 11:22:32;;;;;;;;;;;-1.30;99.90;;;;;;4926766;29;20279;-90
2024/01/12 11:24:58;;;;;;;;;;;-1.40;99.90;;;;;;4931700;29;19935;-89
2024/01/12 11:27:40;;;;;;;;;;;-1.40;99.90;;;;;;4899708;29;19910;-89
2024/01/12 11:30:06;;;;;;;;;;;-1.40;99.90;;;;;;4934645;29;19969;-89
2024/01/12 11:32:31;;;;;;;;;;;-1.30;99.90;;;;;;4926926;29;19919;-88
2024/01/12 11:35:13;;;;;;;;;;;-1.30;99.90;;;;;;4934286;29;19969;-89
2024/01/12 11:37:41;;;;;;;;;;;-1.30;99.90;;;;;;4916908;28;20366;-89
2024/01/12 11:40:09;;;;;;;;;;;-1.60;99.90;;;;;;4934772;29;19930;-88
2024/01/12 11:42:36;;;;;;;;;;;-1.80;99.90;;;;;;4938539;29;20264;-89
2024/01/12 11:45:07;;;;;;;;;;;-1.80;99.90;;;;;;4919866;29;19997;-89
2024/01/12 11:47:33;;;;;;;;;;;-1.80;99.90;;;;;;4932161;29;19966;-89
2024/01/12 11:49:58;;;;;;;;;;;-1.70;99.90;;;;;;4932789;29;19910;-89
2024/01/12 11:52:24;;;;;;;;;;;-1.60;99.90;;;;;;4905884;29;20335;-90
2024/01/12 11:54:50;;;;;;;;;;;-1.40;99.90;;;;;;4933011;29;20363;-89
2024/01/12 11:57:20;;;;;;;;;;;-1.40;99.90;;;;;;4918398;29;19911;-89
2024/01/12 12:00:14;;;;;;;;;;;-1.50;99.90;;;;;;4901745;29;20760;-90
2024/01/12 12:02:39;;;;;;;;;;;-1.60;99.90;;;;;;4940501;29;19966;-89
2024/01/12 12:05:05;;;;;;;;;;;-1.80;99.90;;;;;;4918348;29;19954;-89
2024/01/12 12:07:31;;;;;;;;;;;-1.80;99.90;;;;;;4929344;28;20286;-89
2024/01/12 12:10:25;;;;;;;;;;;-1.80;99.90;;;;;;4926883;29;19914;-89
2024/01/12 12:12:52;;;;;;;;;;;-1.70;99.90;;;;;;4926242;29;19919;-89
2024/01/12 12:15:18;;;;;;;;;;;-1.80;99.90;;;;;;4938813;29;19915;-89
2024/01/12 12:17:45;;;;;;;;;;;-1.90;99.90;;;;;;4920239;29;19907;-89
2024/01/12 12:20:11;;;;;;;;;;;-1.90;99.90;;;;;;4942190;29;19918;-89
2024/01/12 12:22:38;;;;;;;;;;;-1.90;99.90;;;;;;4931132;29;19914;-90
2024/01/12 12:25:14;;;;;;;;;;;-1.80;99.90;;;;;;4922990;29;19921;-89
2024/01/12 12:27:40;;;;;;;;;;;-1.90;99.90;;;;;;4940744;29;20022;-89
2024/01/12 12:30:37;;;;;;;;;;;-1.80;99.90;;;;;;4933431;29;19910;-89
2024/01/12 12:33:03;;;;;;;;;;;-1.70;99.90;;;;;;4926863;29;19925;-89
2024/01/12 12:35:29;;;;;;;;;;;-1.60;99.90;;;;;;4931802;29;20026;-90
2024/01/12 12:37:59;;;;;;;;;;;-1.50;99.90;;;;;;4906747;29;19918;-90
2024/01/12 12:40:25;;;;;;;;;;;-1.50;99.90;;;;;;4938052;29;19917;-89
2024/01/12 12:42:51;;;;;;;;;;;-1.50;99.90;;;;;;4938116;29;19974;-89
2024/01/12 12:45:31;;;;;;;;;;;-1.50;99.90;;;;;;4922393;29;19968;-90
2024/01/12 12:47:58;;;;;;;;;;;-1.50;99.90;;;;;;4938065;29;19915;-89
2024/01/12 12:50:24;;;;;;;;;;;-1.50;99.90;;;;;;4908859;29;20289;-89
2024/01/12 12:52:49;;;;;;;;;;;-1.50;99.90;;;;;;4938195;29;20351;-89
2024/01/12 12:55:15;;;;;;;;;;;-1.60;99.90;;;;;;4927681;29;19921;-91
2024/01/12 12:57:41;;;;;;;;;;;-1.60;99.90;;;;;;4921966;29;20353;-90
2024/01/12 13:00:09;;;;;;;;;;;-1.70;99.90;;;;;;4939201;29;19993;-89
2024/01/12 13:02:35;;;;;;;;;;;-1.60;99.90;;;;;;4937890;29;19911;-90
2024/01/12 13:05:01;;;;;;;;;;;-1.80;99.90;;;;;;4929094;29;19911;-89
2024/01/12 13:07:28;;;;;;;;;;;-1.80;99.90;;;;;;4938724;29;20371;-90
2024/01/12 13:09:54;;;;;;;;;;;-1.80;99.90;;;;;;4921456;29;19942;-89
2024/01/12 13:12:20;;;;;;;;;;;-1.80;99.90;;;;;;4938206;29;19962;-90
2024/01/12 13:14:45;;;;;;;;;;;-2.00;99.90;;;;;;4937712;29;20631;-89
2024/01/12 13:17:11;;;;;;;;;;;-2.00;99.90;;;;;;4937335;29;19916;-90
2024/01/12 13:19:37;;;;;;;;;;;-2.00;99.90;;;;;;4937857;29;19915;-90
2024/01/12 13:22:03;;;;;;;;;;;-2.00;99.90;;;;;;4938072;29;19910;-89
2024/01/12 13:24:28;;;;;;;;;;;-2.00;99.90;;;;;;4912587;29;19917;-89
2024/01/12 13:26:54;;;;;;;;;;;-2.00;99.90;;;;;;4937833;29;19907;-89
2024/01/12 13:29:20;;;;;;;;;;;-2.10;99.90;;;;;;4937326;29;19911;-89
2024/01/12 13:31:46;;;;;;;;;;;-2.20;99.90;;;;;;4937592;29;20398;-90
2024/01/12 13:34:13;;;;;;;;;;;-2.30;99.90;;;;;;4921180;29;20318;-89
2024/01/12 13:36:39;;;;;;;;;;;-2.20;99.90;;;;;;4922060;29;19930;-90
2024/01/12 13:39:06;;;;;;;;;;;-2.30;99.90;;;;;;4940735;29;19907;-90
2024/01/12 13:41:32;;;;;;;;;;;-2.20;99.90;;;;;;4924564;29;20009;-89
2024/01/12 13:43:58;;;;;;;;;;;-2.20;99.90;;;;;;4937383;29;19949;-89
2024/01/12 13:46:23;;;;;;;;;;;-2.20;99.90;;;;;;4935353;29;19911;-90
2024/01/12 13:48:49;;;;;;;;;;;-2.20;99.90;;;;;;4921348;29;19918;-89
2024/01/12 13:51:15;;;;;;;;;;;-2.30;99.90;;;;;;4934334;28;19962;-89
2024/01/12 13:53:41;;;;;;;;;;;-2.40;99.90;;;;;;4933380;29;20349;-90
2024/01/12 13:56:07;;;;;;;;;;;-2.50;99.90;;;;;;4902908;29;19933;-90
2024/01/12 13:58:33;;;;;;;;;;;-2.50;99.90;;;;;;4905243;29;19918;-90
2024/01/12 14:00:59;;;;;;;;;;;-2.60;99.90;;;;;;4946828;29;19917;-90
2024/01/12 14:03:25;;;;;;;;;;;-2.70;99.90;;;;;;4937870;29;19918;-90
2024/01/12 14:05:51;;;;;;;;;;;-2.80;99.90;;;;;;4948278;29;19911;-90
2024/01/12 14:08:17;;;;;;;;;;;-2.90;99.90;;;;;;4937465;29;20363;-90
2024/01/12 14:10:44;;;;;;;;;;;-2.90;99.90;;;;;;4945226;29;19917;-91
2024/01/12 14:13:09;;;;;;;;;;;-3.00;99.90;;;;;;4934075;29;19910;-89
2024/01/12 14:16:00;;;;;;;;;;;-3.00;99.90;;;;;;4928743;29;20397;-90
2024/01/12 14:18:25;;;;;;;;;;;-3.10;99.90;;;;;;4942925;29;19910;-91
2024/01/12 14:20:52;;;;;;;;;;;-3.10;99.90;;;;;;4938612;29;19911;-90